createdAt,value
2023-03-29T00:01:00.936Z,4.67
2023-03-29T00:03:31.375Z,4.68
2023-03-29T00:06:03.301Z,4.68
2023-03-29T00:08:34.135Z,4.68
2023-03-29T00:11:06.560Z,4.69
2023-03-29T00:13:36.696Z,4.69
2023-03-29T00:16:06.613Z,4.68
2023-03-29T00:18:36.374Z,4.70
2023-03-29T00:21:06.259Z,4.69
2023-03-29T00:23:36.090Z,4.70
2023-03-29T00:26:09.464Z,4.68
2023-03-29T00:28:39.137Z,4.69
2023-03-29T00:31:12.018Z,4.68
2023-03-29T00:33:42.456Z,4.68
2023-03-29T00:36:13.596Z,4.69
2023-03-29T00:38:43.530Z,4.71
2023-03-29T00:41:15.866Z,4.71
2023-03-29T00:44:04.057Z,4.73
2023-03-29T00:46:35.221Z,4.74
2023-03-29T00:49:08.080Z,4.78
2023-03-29T00:51:39.853Z,4.80
2023-03-29T00:54:15.062Z,4.82
2023-03-29T00:56:51.210Z,4.83
2023-03-29T00:59:23.593Z,4.83
2023-03-29T01:01:55.186Z,4.84
2023-03-29T01:04:31.887Z,4.86
2023-03-29T01:07:05.739Z,4.87
2023-03-29T01:09:39.043Z,4.88
2023-03-29T01:12:17.260Z,4.89
2023-03-29T01:14:50.733Z,4.89
2023-03-29T01:17:22.002Z,4.88
2023-03-29T01:20:10.854Z,4.88
2023-03-29T01:22:51.519Z,4.86
2023-03-29T01:25:26.349Z,4.86
2023-03-29T01:28:02.625Z,4.82
2023-03-29T01:30:34.354Z,4.81
2023-03-29T01:33:07.654Z,4.81
2023-03-29T01:35:41.186Z,4.82
2023-03-29T01:38:13.516Z,4.82
2023-03-29T01:40:43.268Z,4.82
2023-03-29T01:43:24.708Z,4.84
2023-03-29T01:46:00.577Z,4.83
2023-03-29T01:48:33.058Z,4.84
2023-03-29T01:51:08.630Z,4.84
2023-03-29T01:53:42.217Z,4.84
2023-03-29T01:56:14.672Z,4.82
2023-03-29T01:58:48.496Z,4.81
2023-03-29T02:01:21.702Z,4.81
2023-03-29T02:03:54.775Z,4.83
2023-03-29T02:06:27.193Z,4.86
2023-03-29T02:08:57.497Z,4.90
2023-03-29T02:11:29.506Z,4.92
2023-03-29T02:14:01.922Z,4.95
2023-03-29T02:16:31.627Z,4.98
2023-03-29T02:19:01.724Z,5.00
2023-03-29T02:21:35.695Z,5.04
2023-03-29T02:24:10.086Z,5.04
2023-03-29T02:26:40.976Z,5.08
2023-03-29T02:29:13.414Z,5.12
2023-03-29T02:31:46.038Z,5.14
2023-03-29T02:34:20.974Z,5.17
2023-03-29T02:36:53.595Z,5.20
2023-03-29T02:39:25.478Z,5.23
2023-03-29T02:41:56.914Z,5.25
2023-03-29T02:44:31.938Z,5.29
2023-03-29T02:47:04.160Z,5.30
2023-03-29T02:49:33.860Z,5.31
2023-03-29T02:52:07.858Z,5.33
2023-03-29T02:54:43.143Z,5.36
2023-03-29T02:57:13.564Z,5.36
2023-03-29T02:59:46.075Z,5.39
2023-03-29T03:02:17.702Z,5.41
2023-03-29T03:04:47.570Z,5.45
2023-03-29T03:07:17.253Z,5.48
2023-03-29T03:09:47.800Z,5.51
2023-03-29T03:12:17.601Z,5.54
2023-03-29T03:14:50.016Z,5.55
2023-03-29T03:17:20.889Z,5.56
2023-03-29T03:19:50.759Z,5.59
2023-03-29T03:22:20.434Z,5.61
2023-03-29T03:24:50.110Z,5.63
2023-03-29T03:27:20.263Z,5.65
2023-03-29T03:29:52.600Z,5.64
2023-03-29T03:32:43.754Z,5.64
2023-03-29T03:35:51.924Z,5.67
2023-03-29T03:38:21.912Z,5.68
2023-03-29T03:40:58.294Z,5.69
2023-03-29T03:43:28.846Z,5.71
2023-03-29T03:46:02.253Z,5.73
2023-03-29T03:48:33.467Z,5.75
2023-03-29T03:51:29.495Z,5.79
2023-03-29T03:53:59.332Z,5.80
2023-03-29T03:56:34.727Z,5.82
2023-03-29T03:59:07.522Z,5.84
2023-03-29T04:01:48.189Z,5.88
2023-03-29T04:04:23.409Z,5.91
2023-03-29T04:07:22.608Z,5.96
2023-03-29T04:10:26.145Z,5.98
2023-03-29T04:13:05.184Z,6.00
2023-03-29T04:15:39.343Z,6.02
2023-03-29T04:18:15.225Z,6.06
2023-03-29T04:20:49.273Z,6.08
2023-03-29T04:23:22.197Z,6.07
2023-03-29T04:25:52.496Z,6.10
2023-03-29T04:28:40.646Z,6.11
2023-03-29T04:31:33.526Z,6.12
2023-03-29T04:34:25.370Z,6.16
2023-03-29T04:36:58.903Z,6.17
2023-03-29T04:39:32.184Z,6.17
2023-03-29T04:42:03.090Z,6.16
2023-03-29T04:44:35.255Z,6.13
2023-03-29T04:47:08.122Z,6.12
2023-03-29T04:49:54.088Z,6.09
2023-03-29T04:52:37.889Z,6.02
2023-03-29T04:55:10.170Z,5.99
2023-03-29T04:58:03.150Z,5.91
2023-03-29T05:00:40.069Z,5.82
2023-03-29T05:03:22.199Z,5.71
2023-03-29T05:06:10.437Z,5.59
2023-03-29T05:08:42.500Z,5.52
2023-03-29T05:11:29.399Z,5.45
2023-03-29T05:14:02.566Z,5.41
2023-03-29T05:16:35.827Z,5.39
2023-03-29T05:19:06.336Z,5.36
2023-03-29T05:21:43.706Z,5.36
2023-03-29T05:24:17.282Z,5.38
2023-03-29T05:26:47.788Z,5.39
2023-03-29T05:29:17.500Z,5.44
2023-03-29T05:31:52.697Z,5.46
2023-03-29T05:34:22.864Z,5.51
2023-03-29T05:37:01.648Z,5.54
2023-03-29T05:39:37.860Z,5.58
2023-03-29T05:42:11.045Z,5.62
2023-03-29T05:44:56.414Z,5.66
2023-03-29T05:47:29.315Z,5.70
2023-03-29T05:49:59.624Z,5.73
2023-03-29T05:52:32.401Z,5.77
2023-03-29T05:55:02.142Z,5.78
2023-03-29T05:57:31.911Z,5.83
2023-03-29T06:00:02.169Z,5.87
2023-03-29T06:02:42.515Z,5.91
2023-03-29T06:05:14.020Z,5.97
2023-03-29T06:08:00.945Z,6.02
2023-03-29T06:10:50.357Z,6.05
2023-03-29T06:13:37.385Z,6.08
2023-03-29T06:16:08.700Z,6.11
2023-03-29T06:18:40.392Z,6.15
2023-03-29T06:21:10.850Z,6.17
2023-03-29T06:23:43.943Z,6.18
2023-03-29T06:26:13.803Z,6.21
2023-03-29T06:28:43.504Z,6.25
2023-03-29T06:31:14.043Z,6.29
2023-03-29T06:33:43.850Z,6.32
2023-03-29T06:36:24.793Z,6.34
2023-03-29T06:38:57.429Z,6.39
2023-03-29T06:41:50.186Z,6.40
2023-03-29T06:44:57.317Z,6.41
2023-03-29T06:47:31.008Z,6.42
2023-03-29T06:50:01.218Z,6.44
2023-03-29T06:52:47.326Z,6.49
2023-03-29T06:55:20.812Z,6.54
2023-03-29T06:57:51.112Z,6.61
2023-03-29T07:00:28.260Z,6.66
2023-03-29T07:03:23.683Z,6.70
2023-03-29T07:06:01.403Z,6.73
2023-03-29T07:08:31.916Z,6.75
2023-03-29T07:11:10.404Z,6.79
2023-03-29T07:14:09.836Z,6.87
2023-03-29T07:16:39.743Z,6.92
2023-03-29T07:19:19.888Z,6.93
2023-03-29T07:21:58.813Z,6.97
2023-03-29T07:24:40.670Z,7.00
2023-03-29T07:27:13.081Z,7.03
2023-03-29T07:29:43.343Z,7.03
2023-03-29T07:32:13.280Z,7.07
2023-03-29T07:34:46.495Z,7.14
2023-03-29T07:37:30.705Z,7.22
2023-03-29T07:40:09.126Z,7.25
2023-03-29T07:42:48.964Z,7.27
2023-03-29T07:45:26.048Z,7.27
2023-03-29T07:48:03.541Z,7.29
2023-03-29T07:50:49.011Z,7.31
2023-03-29T07:53:21.871Z,7.31
2023-03-29T07:55:54.825Z,7.31
2023-03-29T07:58:53.136Z,7.32
2023-03-29T08:01:22.985Z,7.34
2023-03-29T08:04:11.528Z,7.36
2023-03-29T08:07:10.248Z,7.39
2023-03-29T08:09:57.533Z,7.44
2023-03-29T08:12:41.278Z,7.48
2023-03-29T08:15:14.225Z,7.55
2023-03-29T08:17:44.836Z,7.61
2023-03-29T08:20:17.869Z,7.68
2023-03-29T08:22:49.929Z,7.73
2023-03-29T08:25:31.275Z,7.81
2023-03-29T08:28:01.969Z,7.89
2023-03-29T08:30:43.094Z,7.99
2023-03-29T08:33:12.990Z,8.08
2023-03-29T08:35:43.565Z,8.19
2023-03-29T08:38:21.850Z,8.33
2023-03-29T08:40:52.705Z,8.50
2023-03-29T08:43:55.766Z,8.68
2023-03-29T08:46:43.904Z,8.84
2023-03-29T08:49:28.580Z,8.98
2023-03-29T08:52:00.628Z,9.15
2023-03-29T08:54:32.979Z,9.21
2023-03-29T08:57:15.691Z,9.29
2023-03-29T08:59:48.814Z,9.31
2023-03-29T09:02:26.449Z,9.35
2023-03-29T09:05:05.263Z,9.39
2023-03-29T09:07:44.534Z,9.38
2023-03-29T09:10:18.571Z,9.37
2023-03-29T09:13:02.106Z,9.41
2023-03-29T09:15:36.240Z,9.48
2023-03-29T09:18:32.317Z,9.60
2023-03-29T09:21:04.255Z,9.75
2023-03-29T09:23:58.266Z,9.88
2023-03-29T09:26:44.821Z,9.98
2023-03-29T09:29:55.241Z,10.07
2023-03-29T09:32:34.697Z,10.10
2023-03-29T09:35:18.832Z,10.13
2023-03-29T09:37:51.459Z,10.18
2023-03-29T09:40:24.883Z,10.26
2023-03-29T09:43:05.204Z,10.44
2023-03-29T09:45:35.702Z,10.65
2023-03-29T09:48:09.226Z,10.84
2023-03-29T09:50:44.072Z,10.96
2023-03-29T09:53:14.442Z,11.10
2023-03-29T09:55:49.812Z,11.31
2023-03-29T09:58:32.953Z,11.63
2023-03-29T10:01:04.904Z,11.92
2023-03-29T10:03:36.465Z,12.14
2023-03-29T10:06:16.003Z,12.24
2023-03-29T10:08:57.612Z,12.35
2023-03-29T10:11:32.996Z,12.44
2023-03-29T10:14:04.547Z,12.46
2023-03-29T10:16:38.190Z,12.53
2023-03-29T10:19:20.245Z,12.64
2023-03-29T10:21:54.026Z,12.82
2023-03-29T10:24:24.877Z,13.07
2023-03-29T10:26:57.462Z,13.17
2023-03-29T10:29:27.962Z,13.14
2023-03-29T10:31:58.240Z,13.19
2023-03-29T10:34:28.473Z,13.28
2023-03-29T10:37:02.456Z,13.36
2023-03-29T10:39:36.757Z,13.37
2023-03-29T10:42:08.571Z,13.47
2023-03-29T10:44:39.352Z,13.56
2023-03-29T10:47:16.926Z,13.46
2023-03-29T10:49:48.210Z,13.32
2023-03-29T10:52:21.494Z,13.41
2023-03-29T10:54:52.503Z,13.55
2023-03-29T10:57:28.111Z,13.64
2023-03-29T11:00:01.169Z,13.87
2023-03-29T11:02:47.993Z,14.11
2023-03-29T11:05:25.707Z,14.30
2023-03-29T11:08:27.239Z,14.50
2023-03-29T11:11:05.207Z,14.67
2023-03-29T11:13:41.294Z,14.95
2023-03-29T11:16:20.367Z,15.30
2023-03-29T11:19:23.174Z,15.74
2023-03-29T11:21:59.220Z,15.94
2023-03-29T11:24:41.140Z,15.87
2023-03-29T11:27:17.232Z,15.77
2023-03-29T11:29:54.065Z,15.64
2023-03-29T11:32:31.657Z,15.46
2023-03-29T11:35:09.401Z,15.42
2023-03-29T11:37:45.198Z,15.45
2023-03-29T11:40:36.163Z,15.68
2023-03-29T11:43:07.906Z,15.87
2023-03-29T11:45:40.662Z,16.01
2023-03-29T11:48:16.669Z,16.21
2023-03-29T11:50:51.384Z,16.19
2023-03-29T11:53:25.683Z,16.21
2023-03-29T11:55:58.553Z,16.33
2023-03-29T11:58:31.800Z,16.40
2023-03-29T12:01:04.489Z,16.27
2023-03-29T12:03:40.317Z,16.12
2023-03-29T12:06:16.003Z,16.02
2023-03-29T12:08:49.506Z,15.89
2023-03-29T12:11:27.480Z,15.92
2023-03-29T12:14:00.245Z,16.01
2023-03-29T12:16:35.075Z,16.11
2023-03-29T12:19:08.075Z,16.15
2023-03-29T12:21:38.577Z,16.08
2023-03-29T12:24:09.413Z,15.99
2023-03-29T12:26:52.935Z,15.92
2023-03-29T12:29:45.171Z,16.00
2023-03-29T12:32:50.967Z,16.01
2023-03-29T12:36:06.159Z,16.04
2023-03-29T12:38:59.161Z,16.00
2023-03-29T12:41:53.498Z,15.86
2023-03-29T12:44:44.890Z,15.82
2023-03-29T12:47:26.457Z,15.83
2023-03-29T12:49:59.037Z,15.94
2023-03-29T12:52:30.714Z,16.03
2023-03-29T12:55:02.997Z,16.06
2023-03-29T12:57:45.791Z,16.17
2023-03-29T13:00:30.432Z,16.30
2023-03-29T13:03:05.242Z,16.57
2023-03-29T13:05:38.281Z,16.82
2023-03-29T13:08:24.397Z,17.05
2023-03-29T13:10:56.581Z,17.16
2023-03-29T13:13:31.340Z,17.31
2023-03-29T13:16:13.509Z,17.35
2023-03-29T13:19:07.955Z,17.40
2023-03-29T13:21:40.433Z,17.53
2023-03-29T13:24:24.533Z,17.75
2023-03-29T13:27:01.469Z,17.83
2023-03-29T13:29:55.057Z,17.82
2023-03-29T13:32:42.769Z,17.90
2023-03-29T13:35:21.167Z,17.88
2023-03-29T13:37:58.742Z,17.81
2023-03-29T13:40:50.130Z,17.64
2023-03-29T13:43:25.529Z,17.45
2023-03-29T13:46:24.100Z,17.37
2023-03-29T13:48:58.191Z,17.26
2023-03-29T13:51:37.116Z,17.18
2023-03-29T13:54:16.082Z,17.17
2023-03-29T13:56:56.656Z,17.14
2023-03-29T13:59:31.466Z,17.04
2023-03-29T14:02:04.875Z,16.92
2023-03-29T14:04:37.997Z,16.87
2023-03-29T14:07:08.324Z,16.79
2023-03-29T14:09:44.281Z,16.72
2023-03-29T14:12:16.675Z,16.73
2023-03-29T14:14:58.745Z,16.77
2023-03-29T14:17:31.854Z,16.84
2023-03-29T14:20:08.249Z,16.94
2023-03-29T14:22:38.089Z,16.96
2023-03-29T14:25:14.848Z,17.01
2023-03-29T14:27:44.929Z,17.04
2023-03-29T14:30:24.298Z,17.06
2023-03-29T14:32:57.568Z,17.01
2023-03-29T14:35:34.425Z,16.98
2023-03-29T14:38:04.572Z,16.94
2023-03-29T14:40:35.204Z,16.91
2023-03-29T14:43:11.240Z,16.95
2023-03-29T14:45:41.131Z,17.03
2023-03-29T14:48:15.520Z,17.05
2023-03-29T14:50:45.820Z,17.04
2023-03-29T14:53:21.143Z,17.03
2023-03-29T14:55:54.516Z,17.01
2023-03-29T14:58:25.947Z,16.95
2023-03-29T15:00:55.895Z,16.88
2023-03-29T15:03:29.479Z,16.77
2023-03-29T15:06:02.669Z,16.72
2023-03-29T15:08:35.333Z,16.66
2023-03-29T15:11:06.852Z,16.68
2023-03-29T15:13:36.603Z,16.72
2023-03-29T15:16:08.269Z,16.73
2023-03-29T15:18:41.821Z,16.74
2023-03-29T15:21:13.294Z,16.74
2023-03-29T15:23:49.570Z,16.73
2023-03-29T15:26:26.427Z,16.70
2023-03-29T15:29:00.718Z,16.65
2023-03-29T15:31:37.113Z,16.51
2023-03-29T15:34:11.266Z,16.42
2023-03-29T15:36:43.305Z,16.40
2023-03-29T15:39:15.528Z,16.35
2023-03-29T15:41:45.910Z,16.29
2023-03-29T15:44:18.539Z,16.22
2023-03-29T15:46:48.390Z,16.13
2023-03-29T15:49:20.798Z,16.08
2023-03-29T15:51:50.496Z,16.02
2023-03-29T15:54:20.187Z,15.96
2023-03-29T15:56:53.622Z,15.88
2023-03-29T15:59:23.396Z,15.78
2023-03-29T16:01:54.672Z,15.72
2023-03-29T16:04:27.143Z,15.70
2023-03-29T16:06:57.921Z,15.66
2023-03-29T16:09:28.211Z,15.64
2023-03-29T16:12:00.465Z,15.62
2023-03-29T16:14:31.872Z,15.61
2023-03-29T16:17:03.280Z,15.57
2023-03-29T16:19:36.562Z,15.51
2023-03-29T16:22:07.649Z,15.45
2023-03-29T16:24:38.107Z,15.42
2023-03-29T16:27:08.107Z,15.39
2023-03-29T16:29:37.857Z,15.40
2023-03-29T16:32:07.859Z,15.38
2023-03-29T16:34:43.436Z,15.36
2023-03-29T16:37:13.616Z,15.34
2023-03-29T16:39:43.603Z,15.33
2023-03-29T16:42:14.257Z,15.30
2023-03-29T16:44:44.673Z,15.29
2023-03-29T16:47:14.919Z,15.28
2023-03-29T16:49:48.720Z,15.29
2023-03-29T16:52:18.395Z,15.28
2023-03-29T16:54:48.159Z,15.26
2023-03-29T16:57:17.894Z,15.25
2023-03-29T16:59:47.902Z,15.22
2023-03-29T17:02:17.587Z,15.17
2023-03-29T17:04:49.999Z,15.13
2023-03-29T17:07:20.052Z,15.07
2023-03-29T17:09:49.740Z,15.04
2023-03-29T17:12:21.254Z,15.02
2023-03-29T17:14:51.264Z,14.98
2023-03-29T17:17:21.857Z,14.94
2023-03-29T17:19:54.104Z,14.91
2023-03-29T17:22:23.766Z,14.88
2023-03-29T17:24:53.420Z,14.86
2023-03-29T17:27:23.210Z,14.83
2023-03-29T17:29:52.907Z,14.83
2023-03-29T17:32:22.594Z,14.80
2023-03-29T17:34:54.895Z,14.79
2023-03-29T17:37:24.636Z,14.76
2023-03-29T17:39:54.407Z,14.75
2023-03-29T17:42:24.141Z,14.72
2023-03-29T17:44:53.872Z,14.71
2023-03-29T17:47:23.560Z,14.70
2023-03-29T17:49:56.021Z,14.68
2023-03-29T17:52:26.353Z,14.64
2023-03-29T17:54:56.179Z,14.59
2023-03-29T17:57:26.649Z,14.51
2023-03-29T17:59:56.644Z,14.44
2023-03-29T18:02:27.277Z,14.36
2023-03-29T18:05:01.747Z,14.27
2023-03-29T18:07:31.626Z,14.18
2023-03-29T18:10:01.508Z,14.12
2023-03-29T18:12:31.960Z,14.06
2023-03-29T18:15:01.738Z,13.99
2023-03-29T18:17:31.605Z,13.95
2023-03-29T18:20:09.203Z,13.90
2023-03-29T18:22:39.300Z,13.85
2023-03-29T18:25:11.308Z,13.81
2023-03-29T18:27:41.486Z,13.74
2023-03-29T18:30:13.956Z,13.68
2023-03-29T18:32:43.756Z,13.63
2023-03-29T18:35:16.137Z,13.59
2023-03-29T18:37:45.831Z,13.54
2023-03-29T18:40:19.965Z,13.54
2023-03-29T18:42:49.623Z,13.50
2023-03-29T18:45:19.456Z,13.48
2023-03-29T18:47:50.651Z,13.45
2023-03-29T18:50:23.292Z,13.43
2023-03-29T18:52:53.142Z,13.41
2023-03-29T18:55:22.812Z,13.39
2023-03-29T18:57:52.562Z,13.37
2023-03-29T19:00:22.464Z,13.36
2023-03-29T19:02:52.262Z,13.34
2023-03-29T19:05:24.631Z,13.32
2023-03-29T19:07:54.335Z,13.32
2023-03-29T19:10:24.826Z,13.29
2023-03-29T19:12:54.614Z,13.28
2023-03-29T19:15:24.443Z,13.24
2023-03-29T19:17:54.363Z,13.21
2023-03-29T19:20:26.789Z,13.20
2023-03-29T19:22:56.636Z,13.19
2023-03-29T19:25:26.332Z,13.18
2023-03-29T19:27:56.064Z,13.15
2023-03-29T19:30:26.012Z,13.13
2023-03-29T19:32:55.780Z,13.11
2023-03-29T19:35:28.246Z,13.09
2023-03-29T19:37:57.987Z,13.06
2023-03-29T19:40:27.759Z,13.03
2023-03-29T19:42:57.468Z,13.01
2023-03-29T19:45:27.961Z,13.00
2023-03-29T19:47:57.825Z,12.99
2023-03-29T19:50:31.706Z,12.98
2023-03-29T19:53:01.784Z,12.96
2023-03-29T19:55:31.566Z,12.95
2023-03-29T19:58:01.244Z,12.93
2023-03-29T20:00:30.937Z,12.90
2023-03-29T20:03:02.053Z,12.85
2023-03-29T20:05:34.369Z,12.81
2023-03-29T20:08:04.093Z,12.78
2023-03-29T20:10:33.782Z,12.73
2023-03-29T20:13:03.516Z,12.68
2023-03-29T20:15:33.219Z,12.64
2023-03-29T20:18:03.621Z,12.61
2023-03-29T20:20:35.946Z,12.58
2023-03-29T20:23:05.773Z,12.55
2023-03-29T20:25:35.770Z,12.51
2023-03-29T20:28:06.661Z,12.49
2023-03-29T20:30:36.902Z,12.47
2023-03-29T20:33:07.586Z,12.43
2023-03-29T20:35:39.944Z,12.41
2023-03-29T20:38:10.374Z,12.38
2023-03-29T20:40:40.961Z,12.34
2023-03-29T20:43:13.433Z,12.31
2023-03-29T20:45:52.701Z,12.28
2023-03-29T20:48:24.414Z,12.25
2023-03-29T20:50:57.788Z,12.22
2023-03-29T20:53:34.835Z,12.18
2023-03-29T20:56:06.534Z,12.15
2023-03-29T20:58:36.215Z,12.12
2023-03-29T21:01:06.169Z,12.11
2023-03-29T21:03:36.338Z,12.12
2023-03-29T21:06:09.618Z,12.13
2023-03-29T21:08:39.315Z,12.12
2023-03-29T21:11:10.054Z,12.13
2023-03-29T21:13:39.955Z,12.17
2023-03-29T21:16:10.889Z,12.18
2023-03-29T21:18:41.730Z,12.17
2023-03-29T21:21:14.885Z,12.14
2023-03-29T21:23:44.567Z,12.13
2023-03-29T21:26:14.248Z,12.12
2023-03-29T21:28:43.959Z,12.12
2023-03-29T21:31:13.679Z,12.14
2023-03-29T21:33:43.396Z,12.17
2023-03-29T21:36:15.686Z,12.17
2023-03-29T21:38:45.578Z,12.18
2023-03-29T21:41:15.569Z,12.21
2023-03-29T21:43:45.281Z,12.23
2023-03-29T21:46:15.693Z,12.26
2023-03-29T21:48:45.468Z,12.28
2023-03-29T21:51:17.753Z,12.30
2023-03-29T21:53:47.418Z,12.30
2023-03-29T21:56:17.676Z,12.30
2023-03-29T21:58:47.393Z,12.30
2023-03-29T22:01:17.135Z,12.28
2023-03-29T22:03:47.641Z,12.28
2023-03-29T22:06:19.910Z,12.26
2023-03-29T22:08:53.130Z,12.20
2023-03-29T22:11:23.310Z,12.14
2023-03-29T22:13:54.737Z,12.10
2023-03-29T22:16:26.033Z,12.07
2023-03-29T22:18:55.856Z,12.02
2023-03-29T22:21:31.314Z,11.98
2023-03-29T22:24:02.340Z,11.97
2023-03-29T22:26:34.232Z,11.98
2023-03-29T22:29:04.293Z,11.99
2023-03-29T22:31:34.539Z,12.00
2023-03-29T22:34:04.259Z,12.00
2023-03-29T22:36:36.967Z,11.99
2023-03-29T22:39:07.260Z,11.96
2023-03-29T22:41:36.914Z,11.97
2023-03-29T22:44:06.724Z,11.99
2023-03-29T22:46:36.746Z,12.01
2023-03-29T22:49:07.283Z,12.00
2023-03-29T22:51:39.530Z,11.98
2023-03-29T22:54:09.288Z,11.96
2023-03-29T22:56:39.120Z,11.96
2023-03-29T22:59:08.859Z,11.96
2023-03-29T23:01:38.584Z,11.95
2023-03-29T23:04:08.590Z,11.93
2023-03-29T23:06:41.033Z,11.91
2023-03-29T23:09:10.760Z,11.92
2023-03-29T23:11:40.469Z,11.90
2023-03-29T23:14:10.168Z,11.89
2023-03-29T23:16:40.251Z,11.83
2023-03-29T23:19:09.928Z,11.76
2023-03-29T23:21:42.285Z,11.69
2023-03-29T23:24:12.012Z,11.64
2023-03-29T23:26:41.668Z,11.58
2023-03-29T23:29:11.353Z,11.58
2023-03-29T23:31:41.922Z,11.56
2023-03-29T23:34:13.580Z,11.61
2023-03-29T23:36:45.819Z,11.63
2023-03-29T23:39:16.212Z,11.63
2023-03-29T23:41:45.907Z,11.62
2023-03-29T23:44:15.581Z,11.59
2023-03-29T23:46:45.380Z,11.59
2023-03-29T23:49:15.127Z,11.62
2023-03-29T23:51:48.420Z,11.66
2023-03-29T23:54:18.117Z,11.70
2023-03-29T23:56:47.820Z,11.73
2023-03-29T23:59:17.511Z,11.75
